sensor_id;sensor_type;location;lat;lon;timestamp;P1;durP1;ratioP1;P2;durP2;ratioP2
32455;SDS011;18912;43.270;27.942;2023-08-20T00:00:09;22.45;;;8.48;;
32455;SDS011;18912;43.270;27.942;2023-08-20T00:02:36;19.52;;;8.68;;
32455;SDS011;18912;43.270;27.942;2023-08-20T00:05:03;17.27;;;8.43;;
32455;SDS011;18912;43.270;27.942;2023-08-20T00:07:30;15.15;;;8.63;;
32455;SDS011;18912;43.270;27.942;2023-08-20T00:09:56;15.63;;;8.52;;
32455;SDS011;18912;43.270;27.942;2023-08-20T00:12:21;18.23;;;8.97;;
32455;SDS011;18912;43.270;27.942;2023-08-20T00:17:35;14.18;;;9.10;;
32455;SDS011;18912;43.270;27.942;2023-08-20T00:20:06;13.48;;;8.60;;
32455;SDS011;18912;43.270;27.942;2023-08-20T00:22:42;17.52;;;9.40;;
32455;SDS011;18912;43.270;27.942;2023-08-20T00:25:10;18.05;;;8.98;;
32455;SDS011;18912;43.270;27.942;2023-08-20T00:30:01;12.93;;;8.15;;
32455;SDS011;18912;43.270;27.942;2023-08-20T00:32:28;10.45;;;8.05;;
32455;SDS011;18912;43.270;27.942;2023-08-20T00:34:54;18.27;;;8.43;;
32455;SDS011;18912;43.270;27.942;2023-08-20T00:37:19;15.73;;;9.10;;
32455;SDS011;18912;43.270;27.942;2023-08-20T00:39:45;15.70;;;8.37;;
32455;SDS011;18912;43.270;27.942;2023-08-20T00:42:10;14.00;;;8.37;;
32455;SDS011;18912;43.270;27.942;2023-08-20T00:44:39;9.98;;;8.13;;
32455;SDS011;18912;43.270;27.942;2023-08-20T00:47:06;15.70;;;9.32;;
32455;SDS011;18912;43.270;27.942;2023-08-20T00:49:32;16.13;;;9.82;;
32455;SDS011;18912;43.270;27.942;2023-08-20T00:51:58;14.07;;;9.30;;
32455;SDS011;18912;43.270;27.942;2023-08-20T00:54:24;12.35;;;9.50;;
32455;SDS011;18912;43.270;27.942;2023-08-20T00:56:52;12.45;;;8.25;;
32455;SDS011;18912;43.270;27.942;2023-08-20T00:59:18;13.87;;;8.97;;
32455;SDS011;18912;43.270;27.942;2023-08-20T01:01:43;12.77;;;8.67;;
32455;SDS011;18912;43.270;27.942;2023-08-20T01:04:09;17.50;;;8.97;;
32455;SDS011;18912;43.270;27.942;2023-08-20T01:12:39;20.30;;;9.23;;
32455;SDS011;18912;43.270;27.942;2023-08-20T01:15:06;18.45;;;8.88;;
32455;SDS011;18912;43.270;27.942;2023-08-20T01:17:38;15.13;;;9.07;;
32455;SDS011;18912;43.270;27.942;2023-08-20T01:20:04;13.77;;;8.60;;
32455;SDS011;18912;43.270;27.942;2023-08-20T01:22:49;16.88;;;9.50;;
32455;SDS011;18912;43.270;27.942;2023-08-20T01:28:23;15.32;;;8.40;;
32455;SDS011;18912;43.270;27.942;2023-08-20T01:30:48;14.97;;;8.57;;
32455;SDS011;18912;43.270;27.942;2023-08-20T01:33:14;19.17;;;9.60;;
32455;SDS011;18912;43.270;27.942;2023-08-20T01:35:40;16.67;;;8.60;;
32455;SDS011;18912;43.270;27.942;2023-08-20T01:38:06;22.60;;;9.33;;
32455;SDS011;18912;43.270;27.942;2023-08-20T01:40:32;17.10;;;9.38;;
32455;SDS011;18912;43.270;27.942;2023-08-20T01:42:58;12.83;;;9.07;;
32455;SDS011;18912;43.270;27.942;2023-08-20T01:45:23;16.93;;;10.00;;
32455;SDS011;18912;43.270;27.942;2023-08-20T01:47:49;15.77;;;10.10;;
32455;SDS011;18912;43.270;27.942;2023-08-20T01:50:14;15.27;;;9.13;;
32455;SDS011;18912;43.270;27.942;2023-08-20T01:52:40;15.57;;;8.80;;
32455;SDS011;18912;43.270;27.942;2023-08-20T01:55:05;20.63;;;9.13;;
32455;SDS011;18912;43.270;27.942;2023-08-20T01:57:31;11.27;;;8.10;;
32455;SDS011;18912;43.270;27.942;2023-08-20T01:59:57;14.73;;;8.87;;
32455;SDS011;18912;43.270;27.942;2023-08-20T02:02:23;14.77;;;9.23;;
32455;SDS011;18912;43.270;27.942;2023-08-20T02:04:49;14.20;;;8.23;;
32455;SDS011;18912;43.270;27.942;2023-08-20T02:07:14;24.53;;;8.90;;
32455;SDS011;18912;43.270;27.942;2023-08-20T02:09:39;15.43;;;9.20;;
32455;SDS011;18912;43.270;27.942;2023-08-20T02:12:05;21.03;;;9.57;;
32455;SDS011;18912;43.270;27.942;2023-08-20T02:14:31;13.07;;;9.17;;
32455;SDS011;18912;43.270;27.942;2023-08-20T02:16:59;16.90;;;9.48;;
32455;SDS011;18912;43.270;27.942;2023-08-20T02:19:26;14.82;;;8.73;;
32455;SDS011;18912;43.270;27.942;2023-08-20T02:21:52;17.67;;;8.80;;
32455;SDS011;18912;43.270;27.942;2023-08-20T02:26:43;21.98;;;8.55;;
32455;SDS011;18912;43.270;27.942;2023-08-20T02:29:08;14.40;;;8.37;;
32455;SDS011;18912;43.270;27.942;2023-08-20T02:31:35;12.38;;;8.88;;
32455;SDS011;18912;43.270;27.942;2023-08-20T02:34:00;15.48;;;8.77;;
32455;SDS011;18912;43.270;27.942;2023-08-20T02:36:26;22.07;;;8.83;;
32455;SDS011;18912;43.270;27.942;2023-08-20T02:38:52;15.40;;;9.30;;
32455;SDS011;18912;43.270;27.942;2023-08-20T02:41:17;14.63;;;8.63;;
32455;SDS011;18912;43.270;27.942;2023-08-20T02:43:43;16.70;;;8.63;;
32455;SDS011;18912;43.270;27.942;2023-08-20T02:46:08;16.97;;;8.50;;
32455;SDS011;18912;43.270;27.942;2023-08-20T02:48:34;21.50;;;9.00;;
32455;SDS011;18912;43.270;27.942;2023-08-20T02:50:59;20.17;;;9.23;;
32455;SDS011;18912;43.270;27.942;2023-08-20T02:53:25;25.20;;;8.27;;
32455;SDS011;18912;43.270;27.942;2023-08-20T02:55:50;16.70;;;8.93;;
32455;SDS011;18912;43.270;27.942;2023-08-20T02:58:15;20.43;;;9.73;;
32455;SDS011;18912;43.270;27.942;2023-08-20T03:00:41;17.63;;;8.60;;
32455;SDS011;18912;43.270;27.942;2023-08-20T03:03:08;26.20;;;9.38;;
32455;SDS011;18912;43.270;27.942;2023-08-20T03:05:34;15.05;;;9.30;;
32455;SDS011;18912;43.270;27.942;2023-08-20T03:08:00;11.97;;;9.27;;
32455;SDS011;18912;43.270;27.942;2023-08-20T03:10:29;12.73;;;8.80;;
32455;SDS011;18912;43.270;27.942;2023-08-20T03:12:56;17.20;;;9.02;;
32455;SDS011;18912;43.270;27.942;2023-08-20T03:15:23;14.25;;;9.20;;
32455;SDS011;18912;43.270;27.942;2023-08-20T03:17:48;21.57;;;9.20;;
32455;SDS011;18912;43.270;27.942;2023-08-20T03:20:14;25.73;;;9.63;;
32455;SDS011;18912;43.270;27.942;2023-08-20T03:22:39;12.17;;;9.90;;
32455;SDS011;18912;43.270;27.942;2023-08-20T03:25:05;21.87;;;9.70;;
32455;SDS011;18912;43.270;27.942;2023-08-20T03:27:31;18.55;;;9.43;;
32455;SDS011;18912;43.270;27.942;2023-08-20T03:29:57;16.67;;;9.17;;
32455;SDS011;18912;43.270;27.942;2023-08-20T03:32:23;18.63;;;9.38;;
32455;SDS011;18912;43.270;27.942;2023-08-20T03:34:49;14.80;;;8.87;;
32455;SDS011;18912;43.270;27.942;2023-08-20T03:37:15;23.00;;;8.82;;
32455;SDS011;18912;43.270;27.942;2023-08-20T03:39:41;17.50;;;9.60;;
32455;SDS011;18912;43.270;27.942;2023-08-20T03:42:07;11.33;;;8.40;;
32455;SDS011;18912;43.270;27.942;2023-08-20T03:44:32;13.77;;;10.10;;
32455;SDS011;18912;43.270;27.942;2023-08-20T03:46:58;18.03;;;8.97;;
32455;SDS011;18912;43.270;27.942;2023-08-20T03:49:24;22.13;;;8.97;;
32455;SDS011;18912;43.270;27.942;2023-08-20T03:51:49;15.60;;;9.07;;
32455;SDS011;18912;43.270;27.942;2023-08-20T03:54:15;22.40;;;10.60;;
32455;SDS011;18912;43.270;27.942;2023-08-20T03:56:41;20.03;;;9.00;;
32455;SDS011;18912;43.270;27.942;2023-08-20T03:59:07;20.17;;;9.77;;
32455;SDS011;18912;43.270;27.942;2023-08-20T04:01:32;16.27;;;8.70;;
32455;SDS011;18912;43.270;27.942;2023-08-20T04:03:58;23.30;;;9.00;;
32455;SDS011;18912;43.270;27.942;2023-08-20T04:06:23;14.47;;;9.53;;
32455;SDS011;18912;43.270;27.942;2023-08-20T04:08:50;17.85;;;9.10;;
32455;SDS011;18912;43.270;27.942;2023-08-20T04:11:15;16.60;;;8.57;;
32455;SDS011;18912;43.270;27.942;2023-08-20T04:13:41;15.00;;;9.10;;
32455;SDS011;18912;43.270;27.942;2023-08-20T04:16:08;16.58;;;9.30;;
32455;SDS011;18912;43.270;27.942;2023-08-20T04:18:34;14.48;;;9.38;;
32455;SDS011;18912;43.270;27.942;2023-08-20T04:21:00;17.20;;;9.30;;
32455;SDS011;18912;43.270;27.942;2023-08-20T04:23:26;25.23;;;9.80;;
32455;SDS011;18912;43.270;27.942;2023-08-20T04:25:52;21.70;;;9.83;;
32455;SDS011;18912;43.270;27.942;2023-08-20T04:28:18;24.60;;;10.48;;
32455;SDS011;18912;43.270;27.942;2023-08-20T04:30:43;17.48;;;10.45;;
32455;SDS011;18912;43.270;27.942;2023-08-20T04:33:09;18.75;;;10.10;;
32455;SDS011;18912;43.270;27.942;2023-08-20T04:35:35;24.10;;;9.93;;
32455;SDS011;18912;43.270;27.942;2023-08-20T04:38:01;11.60;;;8.80;;
32455;SDS011;18912;43.270;27.942;2023-08-20T04:40:27;18.58;;;8.30;;
32455;SDS011;18912;43.270;27.942;2023-08-20T04:42:53;19.50;;;8.70;;
32455;SDS011;18912;43.270;27.942;2023-08-20T04:45:19;14.70;;;8.27;;
32455;SDS011;18912;43.270;27.942;2023-08-20T04:47:45;11.80;;;7.07;;
32455;SDS011;18912;43.270;27.942;2023-08-20T04:50:11;15.63;;;7.57;;
32455;SDS011;18912;43.270;27.942;2023-08-20T04:52:38;12.88;;;6.45;;
32455;SDS011;18912;43.270;27.942;2023-08-20T04:55:05;11.20;;;6.75;;
32455;SDS011;18912;43.270;27.942;2023-08-20T04:57:33;13.27;;;6.95;;
32455;SDS011;18912;43.270;27.942;2023-08-20T04:59:59;17.48;;;7.13;;
32455;SDS011;18912;43.270;27.942;2023-08-20T05:02:25;8.33;;;6.37;;
32455;SDS011;18912;43.270;27.942;2023-08-20T05:04:50;9.40;;;6.40;;
32455;SDS011;18912;43.270;27.942;2023-08-20T05:07:16;10.00;;;6.73;;
32455;SDS011;18912;43.270;27.942;2023-08-20T05:09:42;16.87;;;7.03;;
32455;SDS011;18912;43.270;27.942;2023-08-20T05:12:08;10.40;;;6.73;;
32455;SDS011;18912;43.270;27.942;2023-08-20T05:14:33;10.07;;;7.07;;
32455;SDS011;18912;43.270;27.942;2023-08-20T05:16:59;13.07;;;6.87;;
32455;SDS011;18912;43.270;27.942;2023-08-20T05:19:25;12.43;;;6.23;;
32455;SDS011;18912;43.270;27.942;2023-08-20T05:21:51;14.63;;;6.65;;
32455;SDS011;18912;43.270;27.942;2023-08-20T05:24:20;13.13;;;6.63;;
32455;SDS011;18912;43.270;27.942;2023-08-20T05:26:47;20.20;;;6.82;;
32455;SDS011;18912;43.270;27.942;2023-08-20T05:29:12;12.67;;;5.67;;
32455;SDS011;18912;43.270;27.942;2023-08-20T05:31:38;7.70;;;5.60;;
32455;SDS011;18912;43.270;27.942;2023-08-20T05:34:03;10.13;;;5.73;;
32455;SDS011;18912;43.270;27.942;2023-08-20T05:36:29;9.03;;;6.03;;
32455;SDS011;18912;43.270;27.942;2023-08-20T05:38:55;8.03;;;5.80;;
32455;SDS011;18912;43.270;27.942;2023-08-20T05:41:21;12.07;;;5.60;;
32455;SDS011;18912;43.270;27.942;2023-08-20T05:43:46;10.05;;;5.95;;
32455;SDS011;18912;43.270;27.942;2023-08-20T05:46:12;9.60;;;6.13;;
32455;SDS011;18912;43.270;27.942;2023-08-20T05:48:38;11.47;;;7.00;;
32455;SDS011;18912;43.270;27.942;2023-08-20T05:51:03;10.03;;;5.17;;
32455;SDS011;18912;43.270;27.942;2023-08-20T05:53:29;10.60;;;5.53;;
32455;SDS011;18912;43.270;27.942;2023-08-20T05:55:55;9.33;;;5.70;;
32455;SDS011;18912;43.270;27.942;2023-08-20T05:58:20;12.67;;;6.50;;
32455;SDS011;18912;43.270;27.942;2023-08-20T06:00:46;12.43;;;5.57;;
32455;SDS011;18912;43.270;27.942;2023-08-20T06:03:12;12.32;;;5.78;;
32455;SDS011;18912;43.270;27.942;2023-08-20T06:05:37;7.00;;;5.23;;
32455;SDS011;18912;43.270;27.942;2023-08-20T06:08:03;8.25;;;5.00;;
32455;SDS011;18912;43.270;27.942;2023-08-20T06:10:29;10.77;;;5.28;;
32455;SDS011;18912;43.270;27.942;2023-08-20T06:12:55;7.20;;;5.17;;
32455;SDS011;18912;43.270;27.942;2023-08-20T06:15:22;67.40;;;7.82;;
32455;SDS011;18912;43.270;27.942;2023-08-20T06:17:47;9.40;;;4.93;;
32455;SDS011;18912;43.270;27.942;2023-08-20T06:20:13;18.07;;;7.00;;
32455;SDS011;18912;43.270;27.942;2023-08-20T06:22:38;14.10;;;5.30;;
32455;SDS011;18912;43.270;27.942;2023-08-20T06:25:04;8.43;;;5.80;;
32455;SDS011;18912;43.270;27.942;2023-08-20T06:27:30;7.22;;;4.95;;
32455;SDS011;18912;43.270;27.942;2023-08-20T06:29:56;8.57;;;5.90;;
32455;SDS011;18912;43.270;27.942;2023-08-20T06:32:23;8.43;;;5.45;;
32455;SDS011;18912;43.270;27.942;2023-08-20T06:34:49;9.25;;;4.78;;
32455;SDS011;18912;43.270;27.942;2023-08-20T06:37:15;9.70;;;4.80;;
32455;SDS011;18912;43.270;27.942;2023-08-20T06:39:40;11.85;;;4.45;;
32455;SDS011;18912;43.270;27.942;2023-08-20T06:42:06;8.67;;;4.93;;
32455;SDS011;18912;43.270;27.942;2023-08-20T06:44:31;12.53;;;5.03;;
32455;SDS011;18912;43.270;27.942;2023-08-20T06:46:57;7.00;;;5.03;;
32455;SDS011;18912;43.270;27.942;2023-08-20T06:49:23;14.45;;;5.10;;
32455;SDS011;18912;43.270;27.942;2023-08-20T06:51:48;13.27;;;5.60;;
32455;SDS011;18912;43.270;27.942;2023-08-20T06:54:14;11.63;;;4.82;;
32455;SDS011;18912;43.270;27.942;2023-08-20T06:56:43;6.85;;;4.63;;
32455;SDS011;18912;43.270;27.942;2023-08-20T06:59:09;13.02;;;5.40;;
32455;SDS011;18912;43.270;27.942;2023-08-20T07:01:35;10.82;;;4.55;;
32455;SDS011;18912;43.270;27.942;2023-08-20T07:04:01;7.45;;;4.82;;
32455;SDS011;18912;43.270;27.942;2023-08-20T07:06:26;12.93;;;4.70;;
32455;SDS011;18912;43.270;27.942;2023-08-20T07:08:52;9.70;;;4.65;;
32455;SDS011;18912;43.270;27.942;2023-08-20T07:11:18;11.43;;;4.50;;
32455;SDS011;18912;43.270;27.942;2023-08-20T07:13:44;11.55;;;4.30;;
32455;SDS011;18912;43.270;27.942;2023-08-20T07:16:09;17.43;;;5.00;;
32455;SDS011;18912;43.270;27.942;2023-08-20T07:18:35;10.13;;;4.60;;
32455;SDS011;18912;43.270;27.942;2023-08-20T07:21:01;9.32;;;4.57;;
32455;SDS011;18912;43.270;27.942;2023-08-20T07:23:26;15.23;;;4.32;;
32455;SDS011;18912;43.270;27.942;2023-08-20T07:25:59;11.52;;;4.70;;
32455;SDS011;18912;43.270;27.942;2023-08-20T07:28:30;9.18;;;4.32;;
32455;SDS011;18912;43.270;27.942;2023-08-20T07:31:14;14.35;;;4.82;;
32455;SDS011;18912;43.270;27.942;2023-08-20T07:33:40;8.27;;;4.47;;
32455;SDS011;18912;43.270;27.942;2023-08-20T07:36:06;11.35;;;4.70;;
32455;SDS011;18912;43.270;27.942;2023-08-20T07:38:31;13.07;;;5.00;;
32455;SDS011;18912;43.270;27.942;2023-08-20T07:40:57;16.00;;;5.30;;
32455;SDS011;18912;43.270;27.942;2023-08-20T07:43:24;15.30;;;5.50;;
32455;SDS011;18912;43.270;27.942;2023-08-20T07:45:50;9.25;;;4.80;;
32455;SDS011;18912;43.270;27.942;2023-08-20T07:48:15;14.52;;;4.57;;
32455;SDS011;18912;43.270;27.942;2023-08-20T07:50:41;8.90;;;5.03;;
32455;SDS011;18912;43.270;27.942;2023-08-20T07:53:06;7.90;;;4.85;;
32455;SDS011;18912;43.270;27.942;2023-08-20T07:55:32;12.30;;;5.60;;
32455;SDS011;18912;43.270;27.942;2023-08-20T07:57:57;10.80;;;4.95;;
32455;SDS011;18912;43.270;27.942;2023-08-20T08:00:23;11.93;;;5.55;;
32455;SDS011;18912;43.270;27.942;2023-08-20T08:02:49;7.25;;;5.13;;
32455;SDS011;18912;43.270;27.942;2023-08-20T08:05:14;15.25;;;5.28;;
32455;SDS011;18912;43.270;27.942;2023-08-20T08:07:42;13.90;;;4.72;;
32455;SDS011;18912;43.270;27.942;2023-08-20T08:10:08;17.08;;;5.32;;
32455;SDS011;18912;43.270;27.942;2023-08-20T08:14:59;13.00;;;5.75;;
32455;SDS011;18912;43.270;27.942;2023-08-20T08:17:25;10.23;;;4.95;;
32455;SDS011;18912;43.270;27.942;2023-08-20T08:19:50;10.65;;;5.28;;
32455;SDS011;18912;43.270;27.942;2023-08-20T08:22:19;14.15;;;5.30;;
32455;SDS011;18912;43.270;27.942;2023-08-20T08:24:44;12.32;;;4.80;;
32455;SDS011;18912;43.270;27.942;2023-08-20T08:27:09;10.38;;;4.68;;
32455;SDS011;18912;43.270;27.942;2023-08-20T08:29:35;17.92;;;5.22;;
32455;SDS011;18912;43.270;27.942;2023-08-20T08:32:01;15.48;;;5.25;;
32455;SDS011;18912;43.270;27.942;2023-08-20T08:36:51;7.40;;;5.00;;
32455;SDS011;18912;43.270;27.942;2023-08-20T08:39:17;15.82;;;4.82;;
32455;SDS011;18912;43.270;27.942;2023-08-20T08:44:08;19.13;;;5.05;;
32455;SDS011;18912;43.270;27.942;2023-08-20T08:46:37;8.93;;;4.90;;
32455;SDS011;18912;43.270;27.942;2023-08-20T08:49:03;17.75;;;5.00;;
32455;SDS011;18912;43.270;27.942;2023-08-20T08:53:55;10.07;;;4.68;;
32455;SDS011;18912;43.270;27.942;2023-08-20T08:58:47;14.32;;;4.85;;
32455;SDS011;18912;43.270;27.942;2023-08-20T09:03:38;11.02;;;4.45;;
32455;SDS011;18912;43.270;27.942;2023-08-20T09:08:33;17.77;;;4.70;;
32455;SDS011;18912;43.270;27.942;2023-08-20T09:11:00;8.00;;;4.90;;
32455;SDS011;18912;43.270;27.942;2023-08-20T09:13:36;9.55;;;4.50;;
32455;SDS011;18912;43.270;27.942;2023-08-20T09:16:04;9.20;;;4.75;;
32455;SDS011;18912;43.270;27.942;2023-08-20T09:18:42;18.40;;;5.15;;
32455;SDS011;18912;43.270;27.942;2023-08-20T09:21:11;11.55;;;4.63;;
32455;SDS011;18912;43.270;27.942;2023-08-20T09:23:38;15.25;;;4.40;;
32455;SDS011;18912;43.270;27.942;2023-08-20T09:28:44;10.18;;;3.85;;
32455;SDS011;18912;43.270;27.942;2023-08-20T09:31:11;7.20;;;3.45;;
32455;SDS011;18912;43.270;27.942;2023-08-20T09:33:50;15.80;;;4.60;;
32455;SDS011;18912;43.270;27.942;2023-08-20T09:36:28;9.45;;;4.07;;
32455;SDS011;18912;43.270;27.942;2023-08-20T09:38:55;10.93;;;3.55;;
32455;SDS011;18912;43.270;27.942;2023-08-20T09:43:47;11.85;;;3.88;;
32455;SDS011;18912;43.270;27.942;2023-08-20T09:46:13;6.00;;;3.20;;
32455;SDS011;18912;43.270;27.942;2023-08-20T09:48:44;6.60;;;3.10;;
32455;SDS011;18912;43.270;27.942;2023-08-20T09:51:13;6.47;;;2.40;;
32455;SDS011;18912;43.270;27.942;2023-08-20T09:53:49;5.90;;;2.47;;
32455;SDS011;18912;43.270;27.942;2023-08-20T09:56:21;4.20;;;2.42;;
32455;SDS011;18912;43.270;27.942;2023-08-20T09:58:59;7.43;;;2.22;;
32455;SDS011;18912;43.270;27.942;2023-08-20T10:01:25;4.32;;;1.95;;
32455;SDS011;18912;43.270;27.942;2023-08-20T10:03:52;7.68;;;2.20;;
32455;SDS011;18912;43.270;27.942;2023-08-20T10:06:18;3.72;;;2.20;;
32455;SDS011;18912;43.270;27.942;2023-08-20T10:08:45;4.85;;;2.10;;
32455;SDS011;18912;43.270;27.942;2023-08-20T10:11:12;5.07;;;1.83;;
32455;SDS011;18912;43.270;27.942;2023-08-20T10:16:04;7.30;;;2.13;;
32455;SDS011;18912;43.270;27.942;2023-08-20T10:18:29;4.63;;;2.13;;
32455;SDS011;18912;43.270;27.942;2023-08-20T10:20:57;8.25;;;2.60;;
32455;SDS011;18912;43.270;27.942;2023-08-20T10:23:24;9.60;;;2.50;;
32455;SDS011;18912;43.270;27.942;2023-08-20T10:25:51;7.30;;;2.03;;
32455;SDS011;18912;43.270;27.942;2023-08-20T10:28:26;9.68;;;2.30;;
32455;SDS011;18912;43.270;27.942;2023-08-20T10:31:06;9.65;;;2.65;;
32455;SDS011;18912;43.270;27.942;2023-08-20T10:33:35;5.20;;;2.30;;
32455;SDS011;18912;43.270;27.942;2023-08-20T10:36:18;15.32;;;2.38;;
32455;SDS011;18912;43.270;27.942;2023-08-20T10:38:51;4.05;;;1.92;;
32455;SDS011;18912;43.270;27.942;2023-08-20T10:41:30;2.38;;;1.70;;
32455;SDS011;18912;43.270;27.942;2023-08-20T10:43:59;4.57;;;2.10;;
32455;SDS011;18912;43.270;27.942;2023-08-20T10:46:26;4.47;;;1.98;;
32455;SDS011;18912;43.270;27.942;2023-08-20T10:48:58;2.08;;;1.88;;
32455;SDS011;18912;43.270;27.942;2023-08-20T10:51:31;4.60;;;2.50;;
32455;SDS011;18912;43.270;27.942;2023-08-20T10:56:43;6.15;;;2.00;;
32455;SDS011;18912;43.270;27.942;2023-08-20T10:59:13;7.05;;;2.75;;
32455;SDS011;18912;43.270;27.942;2023-08-20T11:01:46;4.13;;;2.13;;
32455;SDS011;18912;43.270;27.942;2023-08-20T11:04:14;5.60;;;2.42;;
32455;SDS011;18912;43.270;27.942;2023-08-20T11:06:41;3.63;;;2.45;;
32455;SDS011;18912;43.270;27.942;2023-08-20T11:09:06;6.53;;;2.42;;
32455;SDS011;18912;43.270;27.942;2023-08-20T11:11:32;3.20;;;1.90;;
32455;SDS011;18912;43.270;27.942;2023-08-20T11:14:08;7.82;;;2.60;;
32455;SDS011;18912;43.270;27.942;2023-08-20T11:16:41;8.95;;;2.70;;
32455;SDS011;18912;43.270;27.942;2023-08-20T11:19:11;9.88;;;2.60;;
32455;SDS011;18912;43.270;27.942;2023-08-20T11:21:37;12.43;;;2.90;;
32455;SDS011;18912;43.270;27.942;2023-08-20T11:24:04;7.18;;;2.67;;
32455;SDS011;18912;43.270;27.942;2023-08-20T11:26:31;5.72;;;2.40;;
32455;SDS011;18912;43.270;27.942;2023-08-20T11:28:57;8.88;;;2.75;;
32455;SDS011;18912;43.270;27.942;2023-08-20T11:31:23;7.78;;;2.70;;
32455;SDS011;18912;43.270;27.942;2023-08-20T11:33:51;6.55;;;2.38;;
32455;SDS011;18912;43.270;27.942;2023-08-20T11:36:19;7.93;;;2.63;;
32455;SDS011;18912;43.270;27.942;2023-08-20T11:38:54;7.93;;;3.13;;
32455;SDS011;18912;43.270;27.942;2023-08-20T11:41:23;11.15;;;2.70;;
32455;SDS011;18912;43.270;27.942;2023-08-20T11:43:50;4.38;;;2.30;;
32455;SDS011;18912;43.270;27.942;2023-08-20T11:46:18;10.80;;;3.42;;
32455;SDS011;18912;43.270;27.942;2023-08-20T11:49:04;10.80;;;3.00;;
32455;SDS011;18912;43.270;27.942;2023-08-20T11:51:35;6.95;;;2.50;;
32455;SDS011;18912;43.270;27.942;2023-08-20T11:54:01;13.43;;;3.47;;
32455;SDS011;18912;43.270;27.942;2023-08-20T11:56:27;6.30;;;2.30;;
32455;SDS011;18912;43.270;27.942;2023-08-20T11:58:52;8.90;;;2.83;;
32455;SDS011;18912;43.270;27.942;2023-08-20T12:01:24;11.25;;;2.22;;
32455;SDS011;18912;43.270;27.942;2023-08-20T12:03:50;4.87;;;2.47;;
32455;SDS011;18912;43.270;27.942;2023-08-20T12:06:19;6.37;;;2.87;;
32455;SDS011;18912;43.270;27.942;2023-08-20T12:08:46;16.83;;;2.67;;
32455;SDS011;18912;43.270;27.942;2023-08-20T12:11:12;13.07;;;2.63;;
32455;SDS011;18912;43.270;27.942;2023-08-20T12:13:38;9.20;;;2.47;;
32455;SDS011;18912;43.270;27.942;2023-08-20T12:16:04;7.80;;;2.85;;
32455;SDS011;18912;43.270;27.942;2023-08-20T12:18:29;7.60;;;2.80;;
32455;SDS011;18912;43.270;27.942;2023-08-20T12:23:21;6.78;;;2.42;;
32455;SDS011;18912;43.270;27.942;2023-08-20T12:25:49;12.35;;;2.95;;
32455;SDS011;18912;43.270;27.942;2023-08-20T12:28:16;7.65;;;2.95;;
32455;SDS011;18912;43.270;27.942;2023-08-20T12:33:07;13.52;;;3.08;;
32455;SDS011;18912;43.270;27.942;2023-08-20T12:35:33;11.70;;;3.03;;
32455;SDS011;18912;43.270;27.942;2023-08-20T12:37:58;6.50;;;2.80;;
32455;SDS011;18912;43.270;27.942;2023-08-20T12:40:24;7.10;;;3.10;;
32455;SDS011;18912;43.270;27.942;2023-08-20T12:42:49;6.33;;;2.83;;
32455;SDS011;18912;43.270;27.942;2023-08-20T12:45:15;9.80;;;2.67;;
32455;SDS011;18912;43.270;27.942;2023-08-20T12:47:40;15.13;;;2.57;;
32455;SDS011;18912;43.270;27.942;2023-08-20T12:50:06;12.70;;;3.17;;
32455;SDS011;18912;43.270;27.942;2023-08-20T12:52:32;10.75;;;2.80;;
32455;SDS011;18912;43.270;27.942;2023-08-20T12:54:58;6.95;;;2.40;;
32455;SDS011;18912;43.270;27.942;2023-08-20T12:57:23;5.30;;;2.67;;
32455;SDS011;18912;43.270;27.942;2023-08-20T12:59:49;6.75;;;2.50;;
32455;SDS011;18912;43.270;27.942;2023-08-20T13:02:15;10.75;;;3.00;;
32455;SDS011;18912;43.270;27.942;2023-08-20T13:04:41;17.07;;;3.17;;
32455;SDS011;18912;43.270;27.942;2023-08-20T13:07:07;8.25;;;2.28;;
32455;SDS011;18912;43.270;27.942;2023-08-20T13:09:32;5.88;;;3.22;;
32455;SDS011;18912;43.270;27.942;2023-08-20T13:12:00;8.70;;;2.90;;
32455;SDS011;18912;43.270;27.942;2023-08-20T13:14:28;8.98;;;2.60;;
32455;SDS011;18912;43.270;27.942;2023-08-20T13:16:54;6.32;;;2.63;;
32455;SDS011;18912;43.270;27.942;2023-08-20T13:19:21;12.05;;;2.88;;
32455;SDS011;18912;43.270;27.942;2023-08-20T13:21:47;11.88;;;3.22;;
32455;SDS011;18912;43.270;27.942;2023-08-20T13:24:12;9.57;;;2.83;;
32455;SDS011;18912;43.270;27.942;2023-08-20T13:26:39;9.55;;;2.80;;
32455;SDS011;18912;43.270;27.942;2023-08-20T13:29:04;6.53;;;2.80;;
32455;SDS011;18912;43.270;27.942;2023-08-20T13:31:30;10.23;;;3.00;;
32455;SDS011;18912;43.270;27.942;2023-08-20T13:33:55;13.93;;;2.97;;
32455;SDS011;18912;43.270;27.942;2023-08-20T13:36:21;9.80;;;2.87;;
32455;SDS011;18912;43.270;27.942;2023-08-20T13:38:46;8.10;;;2.93;;
32455;SDS011;18912;43.270;27.942;2023-08-20T13:41:11;7.73;;;2.90;;
32455;SDS011;18912;43.270;27.942;2023-08-20T13:43:37;11.17;;;3.50;;
32455;SDS011;18912;43.270;27.942;2023-08-20T13:46:03;10.83;;;3.00;;
32455;SDS011;18912;43.270;27.942;2023-08-20T13:48:29;8.45;;;2.85;;
32455;SDS011;18912;43.270;27.942;2023-08-20T13:50:55;9.98;;;2.70;;
32455;SDS011;18912;43.270;27.942;2023-08-20T13:53:20;12.13;;;2.90;;
32455;SDS011;18912;43.270;27.942;2023-08-20T13:55:46;9.20;;;2.50;;
32455;SDS011;18912;43.270;27.942;2023-08-20T13:58:11;15.80;;;2.57;;
32455;SDS011;18912;43.270;27.942;2023-08-20T14:00:36;16.40;;;2.97;;
32455;SDS011;18912;43.270;27.942;2023-08-20T14:03:02;12.40;;;2.40;;
32455;SDS011;18912;43.270;27.942;2023-08-20T14:05:28;11.95;;;2.80;;
32455;SDS011;18912;43.270;27.942;2023-08-20T14:07:54;10.20;;;2.47;;
32455;SDS011;18912;43.270;27.942;2023-08-20T14:10:19;11.95;;;3.05;;
32455;SDS011;18912;43.270;27.942;2023-08-20T14:12:45;7.17;;;2.80;;
32455;SDS011;18912;43.270;27.942;2023-08-20T14:15:10;9.57;;;2.80;;
32455;SDS011;18912;43.270;27.942;2023-08-20T14:17:36;10.67;;;2.73;;
32455;SDS011;18912;43.270;27.942;2023-08-20T14:20:02;7.43;;;2.80;;
32455;SDS011;18912;43.270;27.942;2023-08-20T14:22:28;12.57;;;3.40;;
32455;SDS011;18912;43.270;27.942;2023-08-20T14:24:54;7.03;;;2.47;;
32455;SDS011;18912;43.270;27.942;2023-08-20T14:27:19;5.33;;;2.67;;
32455;SDS011;18912;43.270;27.942;2023-08-20T14:29:45;9.50;;;2.50;;
32455;SDS011;18912;43.270;27.942;2023-08-20T14:32:10;8.53;;;2.57;;
32455;SDS011;18912;43.270;27.942;2023-08-20T14:34:36;10.73;;;2.33;;
32455;SDS011;18912;43.270;27.942;2023-08-20T14:37:01;12.80;;;2.80;;
32455;SDS011;18912;43.270;27.942;2023-08-20T14:39:28;10.63;;;2.90;;
32455;SDS011;18912;43.270;27.942;2023-08-20T14:41:56;22.02;;;3.30;;
32455;SDS011;18912;43.270;27.942;2023-08-20T14:46:47;10.82;;;2.90;;
32455;SDS011;18912;43.270;27.942;2023-08-20T14:49:13;12.27;;;3.53;;
32455;SDS011;18912;43.270;27.942;2023-08-20T14:51:38;12.70;;;2.87;;
32455;SDS011;18912;43.270;27.942;2023-08-20T14:54:04;8.37;;;2.90;;
32455;SDS011;18912;43.270;27.942;2023-08-20T14:56:29;9.40;;;3.38;;
32455;SDS011;18912;43.270;27.942;2023-08-20T14:58:55;7.63;;;3.00;;
32455;SDS011;18912;43.270;27.942;2023-08-20T15:01:20;7.83;;;3.00;;
32455;SDS011;18912;43.270;27.942;2023-08-20T15:03:46;14.70;;;3.35;;
32455;SDS011;18912;43.270;27.942;2023-08-20T15:06:12;13.70;;;3.13;;
32455;SDS011;18912;43.270;27.942;2023-08-20T15:08:37;11.70;;;2.87;;
32455;SDS011;18912;43.270;27.942;2023-08-20T15:11:03;13.67;;;3.47;;
32455;SDS011;18912;43.270;27.942;2023-08-20T15:13:29;13.20;;;3.50;;